Time;durP1;ratioP1;P1;durP2;ratioP2;P2;SDS_P1;SDS_P2;PMS_P1;PMS_P2;Temp;Humidity;BMP_temperature;BMP_pressure;BME280_temperature;BME280_humidity;BME280_pressure;Samples;Min_cycle;Max_cycle;Signal;HPM_P1;HPM_P2
2022/05/02 00:00:07;;;;;;;11.63;7.90;;;;;;;9.26;71.92;92559.06;5037344;28;20047;-76
2022/05/02 00:02:34;;;;;;;16.05;8.18;;;;;;;9.16;72.53;92546.91;5070892;28;20028;-76
2022/05/02 00:04:59;;;;;;;11.63;7.93;;;;;;;9.09;73.47;92551.63;5037262;28;20036;-76
2022/05/02 00:07:25;;;;;;;15.70;8.57;;;;;;;9.08;73.48;92546.69;5037207;28;20040;-76
2022/05/02 00:09:51;;;;;;;13.40;8.60;;;;;;;9.02;73.23;92550.41;5071457;28;20470;-76
2022/05/02 00:12:17;;;;;;;14.25;8.52;;;;;;;8.93;73.88;92543.16;5071589;28;20313;-76
2022/05/02 00:14:43;;;;;;;14.45;8.27;;;;;;;8.94;73.95;92543.94;5036978;28;20071;-76
2022/05/02 00:17:08;;;;;;;11.68;7.68;;;;;;;8.89;74.01;92547.38;5072435;28;20051;-76
2022/05/02 00:19:34;;;;;;;16.02;8.30;;;;;;;8.89;74.02;92536.94;5071732;28;20072;-76
2022/05/02 00:22:00;;;;;;;14.48;8.13;;;;;;;8.86;74.16;92539.31;5053399;28;20047;-76
2022/05/02 00:24:25;;;;;;;12.77;8.52;;;;;;;8.83;74.80;92535.41;5087822;28;20039;-76
2022/05/02 00:26:51;;;;;;;13.57;8.25;;;;;;;8.81;74.53;92529.69;5073360;28;20027;-76
2022/05/02 00:29:17;;;;;;;14.73;8.80;;;;;;;8.83;74.78;92532.81;5073513;28;20059;-76
2022/05/02 00:31:44;;;;;;;12.15;8.48;;;;;;;8.83;74.63;92526.81;5073227;28;20435;-76
2022/05/02 00:34:10;;;;;;;14.93;8.68;;;;;;;8.84;75.90;92525.75;5073269;28;20447;-76
2022/05/02 00:36:35;;;;;;;13.80;8.48;;;;;;;8.87;75.78;92533.81;5072322;28;20044;-76
2022/05/02 00:39:01;;;;;;;16.90;8.45;;;;;;;8.90;76.52;92522.06;5072872;28;20039;-76
2022/05/02 00:41:27;;;;;;;14.55;8.70;;;;;;;8.91;77.41;92534.81;5090110;28;20421;-77
2022/05/02 00:43:54;;;;;;;15.93;8.27;;;;;;;8.85;77.19;92522.88;5091336;28;20115;-76
2022/05/02 00:46:21;;;;;;;16.63;9.18;;;;;;;8.92;76.97;92536.38;5091109;28;20151;-76
2022/05/02 00:48:47;;;;;;;15.75;8.30;;;;;;;8.93;77.31;92526.72;5056487;28;20035;-76
2022/05/02 00:51:14;;;;;;;13.82;8.38;;;;;;;8.92;77.37;92531.16;5068535;28;20142;-76
2022/05/02 00:53:41;;;;;;;15.90;8.07;;;;;;;8.94;77.44;92529.06;5087909;28;20401;-76
2022/05/02 00:56:08;;;;;;;14.20;8.20;;;;;;;8.94;77.69;92529.06;5073204;28;20119;-76
2022/05/02 00:58:36;;;;;;;14.10;8.10;;;;;;;8.93;77.37;92531.94;5073112;28;20020;-76
2022/05/02 01:01:04;;;;;;;13.45;7.95;;;;;;;8.96;77.50;92526.16;5091038;28;20031;-76
2022/05/02 01:03:30;;;;;;;13.48;8.10;;;;;;;8.93;78.67;92522.25;5072844;28;20570;-76
2022/05/02 01:08:42;;;;;;;17.90;8.35;;;;;;;8.89;78.05;92516.06;5052909;28;20516;-76
2022/05/02 01:11:08;;;;;;;13.35;7.75;;;;;;;8.86;78.40;92511.38;5052714;28;20024;-76
2022/05/02 01:13:45;;;;;;;13.68;8.05;;;;;;;8.81;78.46;92513.25;5052912;28;20127;-76
2022/05/02 01:16:20;;;;;;;14.23;8.38;;;;;;;8.74;78.18;92500.53;5071319;28;20033;-76
2022/05/02 01:18:48;;;;;;;13.73;7.97;;;;;;;8.73;78.48;92512.00;5070192;28;20025;-76
2022/05/02 01:21:25;;;;;;;14.35;8.15;;;;;;;8.68;78.58;92501.59;5086142;28;20603;-76
2022/05/02 01:23:57;;;;;;;14.18;8.30;;;;;;;8.59;79.24;92501.41;5090646;28;20103;-76
2022/05/02 01:26:22;;;;;;;14.80;8.73;;;;;;;8.57;78.08;92507.97;5090862;28;20036;-76
2022/05/02 01:28:53;;;;;;;10.90;7.28;;;;;;;8.57;78.64;92511.34;5090897;28;20446;-76
2022/05/02 01:31:19;;;;;;;14.27;8.43;;;;;;;8.54;78.40;92509.28;5090733;28;20389;-76
2022/05/02 01:33:46;;;;;;;14.65;8.10;;;;;;;8.52;78.46;92508.78;5072735;28;20032;-76
2022/05/02 01:36:11;;;;;;;15.07;8.35;;;;;;;8.44;78.58;92502.28;5089011;28;20028;-76
2022/05/02 01:38:38;;;;;;;13.82;8.77;;;;;;;8.40;78.57;92503.06;5085517;28;20615;-76
2022/05/02 01:41:05;;;;;;;14.75;8.63;;;;;;;8.38;78.79;92495.53;5051911;28;20032;-76
2022/05/02 01:43:33;;;;;;;13.18;8.65;;;;;;;8.35;78.99;92501.28;5063484;28;20044;-76
2022/05/02 01:46:00;;;;;;;17.33;8.90;;;;;;;8.33;78.79;92495.56;5072748;28;20113;-76
2022/05/02 01:48:26;;;;;;;15.57;8.88;;;;;;;8.28;79.54;92496.38;5072822;28;20028;-76
2022/05/02 01:50:52;;;;;;;16.40;8.48;;;;;;;8.25;79.10;92485.72;5068951;28;20048;-76
2022/05/02 01:53:18;;;;;;;14.52;8.95;;;;;;;8.18;79.54;92490.47;5070234;28;20397;-76
2022/05/02 01:55:43;;;;;;;15.50;8.98;;;;;;;8.12;79.68;92493.09;5070455;28;20390;-76
2022/05/02 01:58:09;;;;;;;17.60;9.23;;;;;;;8.07;79.40;92485.31;5069014;28;20056;-76
2022/05/02 02:00:35;;;;;;;16.05;10.10;;;;;;;8.05;79.68;92486.63;5072803;28;20127;-76
2022/05/02 02:03:00;;;;;;;19.13;9.57;;;;;;;7.94;80.55;92480.69;5072623;28;20112;-76
2022/05/02 02:08:10;;;;;;;21.23;11.35;;;;;;;7.93;81.31;92486.97;5069290;28;20037;-76
2022/05/02 02:10:36;;;;;;;19.17;10.90;;;;;;;7.88;80.95;92477.34;5069073;28;20066;-76
2022/05/02 02:13:01;;;;;;;21.10;11.27;;;;;;;7.91;81.28;92486.44;5054360;28;20120;-76
2022/05/02 02:15:27;;;;;;;17.92;11.07;;;;;;;7.86;80.85;92489.09;5054608;28;20486;-76
2022/05/02 02:17:52;;;;;;;18.00;10.13;;;;;;;7.85;80.79;92488.28;5069299;28;20095;-76
2022/05/02 02:20:18;;;;;;;20.60;11.10;;;;;;;7.85;80.83;92488.28;5052563;28;20025;-76
2022/05/02 02:22:44;;;;;;;18.35;10.77;;;;;;;7.85;81.13;92484.91;5052319;28;20116;-76
2022/05/02 02:25:10;;;;;;;17.40;10.80;;;;;;;7.81;81.66;92481.28;5053531;28;20076;-77
2022/05/02 02:27:35;;;;;;;20.85;11.85;;;;;;;7.79;81.86;92478.16;5054440;28;20119;-76
2022/05/02 02:30:01;;;;;;;17.70;10.75;;;;;;;7.77;82.24;92485.44;5073412;28;20561;-76
2022/05/02 02:32:27;;;;;;;23.55;11.50;;;;;;;7.75;81.83;92477.16;5072175;28;20033;-76
2022/05/02 02:34:53;;;;;;;18.25;11.23;;;;;;;7.75;82.20;92475.31;5072310;28;20024;-76
2022/05/02 02:37:19;;;;;;;19.90;11.57;;;;;;;7.75;82.73;92477.16;5089203;28;20114;-76
2022/05/02 02:39:45;;;;;;;20.48;11.85;;;;;;;7.72;82.63;92471.44;5072257;28;20041;-76
2022/05/02 02:42:11;;;;;;;20.10;12.52;;;;;;;7.67;83.22;92466.22;5087705;28;20028;-76
2022/05/02 02:44:37;;;;;;;23.27;12.00;;;;;;;7.67;83.68;92466.22;5065615;28;20036;-76
2022/05/02 02:47:04;;;;;;;22.42;11.80;;;;;;;7.66;83.08;92469.88;5053485;28;20039;-76
2022/05/02 02:49:29;;;;;;;18.98;11.77;;;;;;;7.61;83.12;92458.69;5052817;28;20564;-76
2022/05/02 02:51:55;;;;;;;22.08;11.68;;;;;;;7.59;83.09;92458.19;5055010;28;20045;-76
2022/05/02 02:54:21;;;;;;;19.10;11.60;;;;;;;7.56;82.22;92462.09;5054975;28;20044;-76
2022/05/02 02:56:47;;;;;;;20.38;11.15;;;;;;;7.56;82.23;92454.28;5081839;28;20044;-76
2022/05/02 02:59:13;;;;;;;20.80;10.75;;;;;;;7.51;81.82;92456.91;5075005;28;20581;-76
2022/05/02 03:01:40;;;;;;;19.50;11.05;;;;;;;7.48;82.84;92460.06;5072750;28;20024;-76
2022/05/02 03:06:53;;;;;;;18.10;9.57;;;;;;;7.49;82.32;92453.81;5092890;28;20040;-76
2022/05/02 03:09:19;;;;;;;17.27;9.80;;;;;;;7.45;82.18;92447.56;5092841;28;20032;-76
2022/05/02 03:11:45;;;;;;;18.30;10.40;;;;;;;7.40;82.21;92439.78;5091067;28;20036;-76
2022/05/02 03:14:11;;;;;;;22.73;10.60;;;;;;;7.39;82.86;92448.66;5092840;28;20073;-76
2022/05/02 03:16:37;;;;;;;17.80;10.25;;;;;;;7.37;82.49;92441.09;5091466;28;20040;-76
2022/05/02 03:19:02;;;;;;;19.00;10.93;;;;;;;7.37;83.12;92435.13;5074532;28;20515;-76
2022/05/02 03:21:28;;;;;;;25.63;12.75;;;;;;;7.36;83.27;92439.53;5073227;28;20024;-76
2022/05/02 03:23:53;;;;;;;20.80;12.52;;;;;;;7.35;83.04;92432.00;5058034;28;20070;-76
2022/05/02 03:26:19;;;;;;;27.38;13.18;;;;;;;7.35;83.47;92437.22;5073786;28;20044;-76
2022/05/02 03:28:45;;;;;;;24.35;12.57;;;;;;;7.39;83.72;92431.19;5071171;28;20040;-76
2022/05/02 03:31:10;;;;;;;24.73;12.20;;;;;;;7.36;83.65;92430.94;5072042;28;20036;-76
2022/05/02 03:33:36;;;;;;;25.08;13.38;;;;;;;7.30;83.75;92419.78;5072208;28;20017;-76
2022/05/02 03:36:02;;;;;;;21.85;13.07;;;;;;;7.27;83.84;92421.09;5054244;28;20036;-76
2022/05/02 03:38:27;;;;;;;22.58;12.52;;;;;;;7.27;83.93;92420.28;5055817;28;20187;-76
2022/05/02 03:40:53;;;;;;;22.77;12.30;;;;;;;7.24;83.88;92419.00;5092530;28;20051;-76
2022/05/02 03:43:19;;;;;;;20.00;11.88;;;;;;;7.22;83.72;92413.28;5057314;28;20032;-76
2022/05/02 03:45:44;;;;;;;23.90;12.90;;;;;;;7.20;84.14;92414.59;5092314;28;20328;-76
2022/05/02 03:48:10;;;;;;;22.05;12.65;;;;;;;7.24;84.59;92408.59;5092341;28;20092;-76
2022/05/02 03:50:35;;;;;;;24.35;12.52;;;;;;;7.23;84.17;92409.66;5091975;28;20051;-76
2022/05/02 03:53:01;;;;;;;21.58;11.93;;;;;;;7.25;84.24;92417.97;5069130;28;20481;-76
2022/05/02 03:55:27;;;;;;;21.20;11.70;;;;;;;7.21;84.03;92401.31;5071708;28;20036;-76
2022/05/02 03:57:52;;;;;;;23.70;11.77;;;;;;;7.23;84.07;92404.44;5053488;28;20398;-76
2022/05/02 04:00:19;;;;;;;20.23;11.50;;;;;;;7.24;83.63;92408.59;5037352;28;20367;-76
2022/05/02 04:02:44;;;;;;;20.17;12.23;;;;;;;7.20;83.71;92402.34;5053754;28;20040;-76
2022/05/02 04:05:10;;;;;;;21.58;12.25;;;;;;;7.17;83.17;92402.91;5053795;28;20029;-76
2022/05/02 04:07:37;;;;;;;20.23;11.30;;;;;;;7.11;83.15;92398.75;5077850;28;20507;-76
2022/05/02 04:10:04;;;;;;;21.15;11.48;;;;;;;7.08;83.13;92399.28;5073711;28;20036;-76
2022/05/02 04:12:36;;;;;;;19.50;11.00;;;;;;;7.09;83.01;92398.22;5091885;28;20024;-76
2022/05/02 04:15:04;;;;;;;18.58;10.98;;;;;;;7.10;82.47;92397.19;5056927;28;20481;-76
2022/05/02 04:17:30;;;;;;;22.42;11.45;;;;;;;7.08;82.60;92396.69;5089264;28;20115;-76
2022/05/02 04:19:56;;;;;;;19.92;11.20;;;;;;;7.06;82.81;92396.94;5053616;28;20119;-76
2022/05/02 04:22:21;;;;;;;21.27;11.25;;;;;;;7.06;82.70;92393.56;5053196;28;20128;-76
2022/05/02 04:24:47;;;;;;;18.27;10.30;;;;;;;7.07;82.40;92392.53;5072618;28;20037;-77
2022/05/02 04:27:12;;;;;;;20.98;10.60;;;;;;;7.06;82.50;92389.13;5038173;28;20037;-77
2022/05/02 04:29:38;;;;;;;22.38;11.10;;;;;;;7.11;82.20;92396.16;5054986;28;20046;-77
2022/05/02 04:32:04;;;;;;;19.95;10.85;;;;;;;7.16;82.22;92390.94;5075187;28;20125;-77
2022/05/02 04:34:31;;;;;;;19.73;9.73;;;;;;;7.16;82.10;92393.53;5074554;28;20065;-78
2022/05/02 04:36:57;;;;;;;19.65;11.15;;;;;;;7.18;82.54;92394.06;5043638;28;20036;-78
2022/05/02 04:39:22;;;;;;;18.65;11.05;;;;;;;7.16;82.69;92396.16;5093162;28;20036;-79
2022/05/02 04:41:48;;;;;;;22.67;11.32;;;;;;;7.25;82.40;92397.16;5096497;28;20691;-79
2022/05/02 04:44:13;;;;;;;19.88;11.13;;;;;;;7.24;82.31;92398.19;5099528;28;20040;-78
2022/05/02 04:46:39;;;;;;;22.90;12.20;;;;;;;7.26;82.34;92398.69;5060799;28;20063;-78
2022/05/02 04:49:05;;;;;;;20.63;11.02;;;;;;;7.31;81.94;92390.06;5073612;28;20032;-78
2022/05/02 04:51:30;;;;;;;23.77;11.10;;;;;;;7.35;81.52;92400.75;5041981;28;20104;-78
2022/05/02 04:53:56;;;;;;;18.55;10.82;;;;;;;7.41;81.43;92394.47;5060023;28;20397;-77
2022/05/02 04:56:21;;;;;;;22.08;11.27;;;;;;;7.44;81.62;92393.94;5070295;28;20086;-77
2022/05/02 04:58:47;;;;;;;23.15;11.90;;;;;;;7.50;81.00;92390.25;5066920;28;20122;-78
2022/05/02 05:01:13;;;;;;;21.38;12.02;;;;;;;7.57;81.88;92384.75;5060033;28;20025;-77
2022/05/02 05:03:38;;;;;;;25.23;12.20;;;;;;;7.67;81.54;92388.06;5080930;28;20059;-79
2022/05/02 05:06:04;;;;;;;20.95;11.40;;;;;;;7.76;81.07;92390.09;5092529;28;20420;-79
2022/05/02 05:08:30;;;;;;;23.73;12.48;;;;;;;7.84;80.96;92387.69;5098764;28;20027;-78
2022/05/02 05:10:55;;;;;;;21.13;12.40;;;;;;;7.90;81.39;92385.81;5080731;28;20128;-79
2022/05/02 05:13:27;;;;;;;26.08;12.15;;;;;;;7.92;81.52;92383.72;5090616;28;20032;-79
2022/05/02 05:16:54;;;;;;;22.10;11.55;;;;;;;8.02;81.49;92388.88;5096803;28;20036;-79
2022/05/02 05:19:52;;;;;;;18.45;10.18;;;;;;;8.15;81.01;92387.50;4982157;28;20141;-79
2022/05/02 05:22:51;;;;;;;19.13;11.00;;;;;;;8.27;80.95;92390.50;5087960;28;20004;-82
2022/05/02 05:25:33;;;;;;;20.30;11.27;;;;;;;8.38;80.55;92386.00;5096566;28;20052;-79
2022/05/02 05:28:15;;;;;;;22.10;10.73;;;;;;;8.51;80.47;92388.00;5060230;28;20048;-79
2022/05/02 05:30:44;;;;;;;21.88;11.07;;;;;;;8.67;79.85;92382.59;5079762;28;20086;-79
2022/05/02 05:33:21;;;;;;;18.42;10.25;;;;;;;8.82;79.47;92385.06;5092911;28;20040;-78
2022/05/02 05:36:02;;;;;;;20.60;11.05;;;;;;;9.15;81.52;92387.84;5096549;28;20512;-79
2022/05/02 05:38:42;;;;;;;17.30;10.57;;;;;;;9.17;83.16;92389.13;5080398;28;20252;-79
2022/05/02 05:41:30;;;;;;;22.27;11.23;;;;;;;9.24;82.51;92380.94;5060822;28;20032;-78
2022/05/02 05:44:22;;;;;;;19.67;9.82;;;;;;;9.43;81.21;92380.97;5077993;28;20448;-79
2022/05/02 05:46:56;;;;;;;49.67;12.93;;;;;;;9.70;80.09;92387.41;5040870;28;20049;-78
2022/05/02 05:49:55;;;;;;;21.80;11.32;;;;;;;9.69;80.15;92378.81;5059614;28;20135;-78
2022/05/02 05:52:33;;;;;;;16.15;9.82;;;;;;;9.84;80.12;92382.25;5060109;28;20059;-78
2022/05/02 05:55:05;;;;;;;25.52;10.75;;;;;;;9.94;80.39;92384.72;5077822;28;20037;-79
2022/05/02 05:57:58;;;;;;;20.17;10.33;;;;;;;9.99;79.07;92384.66;5078675;28;20378;-78
2022/05/02 06:00:24;;;;;;;;;;;;;;;10.06;78.76;92384.28;5097005;28;20278;-78
2022/05/02 06:03:16;;;;;;;21.17;10.75;;;;;;;10.07;78.39;92386.63;5098498;28;19912;-79
2022/05/02 06:05:44;;;;;;;39.78;11.43;;;;;;;10.95;76.06;92384.16;5095696;28;20072;-79
2022/05/02 06:08:15;;;;;;;12.77;8.25;;;;;;;11.93;71.14;92377.72;5088601;28;20033;-77
2022/05/02 06:10:42;;;;;;;18.63;10.00;;;;;;;12.70;68.07;92381.19;5077681;28;20530;-78
2022/05/02 06:13:08;;;;;;;17.63;9.05;;;;;;;13.61;64.20;92379.84;5058804;28;20036;-78
2022/05/02 06:18:27;;;;;;;19.85;7.57;;;;;;;14.78;58.93;92375.47;5088615;28;20170;-79
2022/05/02 06:20:57;;;;;;;14.68;7.72;;;;;;;14.88;57.65;92376.22;5087038;28;20036;-79
2022/05/02 06:23:28;;;;;;;11.30;7.15;;;;;;;15.09;57.43;92379.72;5060516;28;20024;-79
2022/05/02 06:25:55;;;;;;;12.50;6.75;;;;;;;15.42;56.56;92381.75;5086759;28;20043;-79
2022/05/02 06:28:31;;;;;;;10.48;6.57;;;;;;;15.45;56.32;92375.09;5096465;28;20024;-79
2022/05/02 06:31:01;;;;;;;10.50;6.25;;;;;;;15.46;56.31;92376.63;5098110;28;20036;-79
2022/05/02 06:33:28;;;;;;;11.18;6.03;;;;;;;15.61;56.91;92376.09;5080042;28;20401;-80
2022/05/02 06:36:15;;;;;;;10.70;6.30;;;;;;;15.93;54.58;92376.53;5098557;28;20060;-79
2022/05/02 06:38:53;;;;;;;8.98;5.28;;;;;;;16.18;54.58;92370.28;5085535;28;20367;-79
2022/05/02 06:41:18;;;;;;;11.32;6.25;;;;;;;15.95;55.19;92374.34;5089775;28;20434;-79
2022/05/02 06:44:00;;;;;;;8.70;6.00;;;;;;;15.67;54.55;92371.38;5073780;28;20028;-80
2022/05/02 06:46:33;;;;;;;8.48;5.68;;;;;;;15.21;56.62;92379.06;5094627;28;20029;-79
2022/05/02 06:49:08;;;;;;;11.80;6.20;;;;;;;14.74;58.30;92379.81;5095234;28;20040;-81
2022/05/02 06:51:39;;;;;;;9.77;6.13;;;;;;;14.35;60.36;92376.31;5075566;28;20068;-79
2022/05/02 06:54:30;;;;;;;35.25;9.18;;;;;;;13.85;61.71;92376.03;5076811;28;20043;-79
2022/05/02 06:57:07;;;;;;;11.50;6.35;;;;;;;13.68;62.94;92374.91;5076657;28;20482;-79
2022/05/02 06:59:54;;;;;;;5.47;3.60;;;;;;;13.62;63.15;92377.97;5078204;28;20093;-80
2022/05/02 07:02:31;;;;;;;9.02;5.65;;;;;;;13.67;64.64;92380.47;5078936;28;20052;-80
2022/05/02 07:05:01;;;;;;;10.25;6.15;;;;;;;13.43;63.38;92386.16;5077486;28;20055;-80
2022/05/02 07:07:29;;;;;;;8.10;5.25;;;;;;;13.34;64.80;92383.50;5076176;28;20060;-80
2022/05/02 07:10:13;;;;;;;11.15;6.13;;;;;;;13.44;64.95;92370.06;5068843;28;20054;-79
2022/05/02 07:12:49;;;;;;;12.00;6.15;;;;;;;13.42;64.70;92371.44;5057212;28;20041;-79
2022/05/02 07:15:27;;;;;;;9.10;5.28;;;;;;;13.23;65.33;92372.44;5055701;28;20037;-79
2022/05/02 07:18:25;;;;;;;9.60;6.07;;;;;;;13.32;65.44;92373.28;5057269;28;20041;-79
2022/05/02 07:21:13;;;;;;;14.07;6.30;;;;;;;13.35;64.78;92374.50;5054603;28;20098;-79
2022/05/02 07:24:15;;;;;;;9.45;4.70;;;;;;;13.40;63.34;92373.63;5061332;28;20060;-80
2022/05/02 07:26:46;;;;;;;11.32;6.45;;;;;;;13.10;64.71;92379.38;5058281;28;20032;-80
2022/05/02 07:29:13;;;;;;;8.27;4.78;;;;;;;13.41;64.11;92375.94;5056314;28;20051;-77
2022/05/02 07:31:40;;;;;;;10.07;6.25;;;;;;;13.15;64.58;92375.03;5056174;28;20086;-77
2022/05/02 07:34:06;;;;;;;5.10;3.35;;;;;;;13.21;64.72;92376.47;5056362;28;20442;-78
2022/05/02 07:36:33;;;;;;;10.30;6.50;;;;;;;13.11;65.83;92375.66;5052007;28;20162;-77
2022/05/02 07:39:03;;;;;;;7.65;5.50;;;;;;;13.39;64.75;92372.81;5063652;28;20082;-77
2022/05/02 07:41:29;;;;;;;7.13;4.75;;;;;;;13.46;64.53;92375.78;5071303;28;20033;-76
2022/05/02 07:44:06;;;;;;;8.60;5.97;;;;;;;13.75;65.29;92374.44;5053498;28;20037;-78
2022/05/02 07:46:36;;;;;;;11.93;4.30;;;;;;;14.12;63.40;92375.72;5052764;28;20040;-78
2022/05/02 07:49:03;;;;;;;7.95;5.40;;;;;;;13.97;63.15;92375.41;5060266;28;20107;-78
2022/05/02 07:51:30;;;;;;;7.18;4.43;;;;;;;13.91;62.84;92375.53;5088534;28;20044;-78
2022/05/02 07:54:00;;;;;;;8.35;5.78;;;;;;;14.15;61.98;92376.94;5072676;28;20063;-77
2022/05/02 07:56:29;;;;;;;6.45;4.00;;;;;;;13.90;62.06;92379.25;5061378;28;20036;-77
2022/05/02 07:58:57;;;;;;;10.00;5.68;;;;;;;13.73;62.23;92377.41;5064111;28;20410;-77
2022/05/02 08:01:24;;;;;;;6.88;4.13;;;;;;;13.92;60.22;92377.09;5058017;28;20072;-78
2022/05/02 08:03:51;;;;;;;7.57;5.38;;;;;;;13.60;60.49;92374.88;5065586;28;20044;-76
2022/05/02 08:06:47;;;;;;;7.15;4.45;;;;;;;13.84;59.88;92374.44;5072777;28;20081;-77
2022/05/02 08:09:54;;;;;;;8.73;5.25;;;;;;;13.79;59.59;92385.91;5051817;28;20036;-77
2022/05/02 08:12:40;;;;;;;6.60;4.18;;;;;;;14.10;59.13;92385.78;5017071;28;20053;-77
2022/05/02 08:15:22;;;;;;;6.97;4.80;;;;;;;14.18;59.75;92383.44;5083030;28;20040;-77
2022/05/02 08:18:18;;;;;;;7.75;4.90;;;;;;;14.07;58.99;92389.03;5072152;28;20040;-77
2022/05/02 08:20:56;;;;;;;7.40;4.50;;;;;;;14.08;59.45;92392.44;5053021;28;20029;-77
2022/05/02 08:29:58;;;;;;;12.68;5.03;;;;;;;14.22;59.08;92390.41;5050615;28;20048;-79
2022/05/02 08:32:57;;;;;;;8.60;5.00;;;;;;;14.22;58.79;92393.03;5053827;28;20036;-79
2022/05/02 08:35:32;;;;;;;7.13;5.10;;;;;;;14.47;58.49;92390.69;5062574;28;20032;-79
2022/05/02 08:38:16;;;;;;;6.10;3.28;;;;;;;14.28;57.80;92389.19;5068676;28;20052;-79
2022/05/02 08:41:00;;;;;;;7.68;4.68;;;;;;;14.40;58.05;92377.25;5053075;28;20298;-79
2022/05/02 08:43:29;;;;;;;5.82;3.78;;;;;;;14.15;58.10;92380.34;5053716;28;20036;-78
2022/05/02 08:46:06;;;;;;;7.45;3.75;;;;;;;14.46;59.00;92391.81;5060678;28;20119;-79
2022/05/02 08:51:47;;;;;;;8.82;4.60;;;;;;;14.56;56.90;92386.22;5086192;28;20045;-78
2022/05/02 08:54:25;;;;;;;6.65;4.40;;;;;;;14.62;56.01;92386.84;5073115;28;20028;-78
2022/05/02 08:57:02;;;;;;;6.20;3.95;;;;;;;14.57;55.92;92393.81;5055057;28;20040;-79
2022/05/02 09:00:07;;;;;;;9.20;4.60;;;;;;;14.53;56.83;92398.13;5074026;28;20105;-79
2022/05/02 09:02:54;;;;;;;6.07;4.13;;;;;;;14.76;55.82;92390.84;5063566;28;20049;-79
2022/05/02 09:05:50;;;;;;;8.68;3.25;;;;;;;14.93;55.76;92397.16;5047874;28;20129;-80
2022/05/02 09:08:35;;;;;;;6.97;4.53;;;;;;;15.04;53.27;92393.09;5053960;28;20039;-79
2022/05/02 09:11:34;;;;;;;10.15;4.90;;;;;;;15.05;55.90;92393.88;5064799;28;20032;-79
2022/05/02 09:14:10;;;;;;;6.70;4.10;;;;;;;15.07;53.41;92392.47;5029990;28;20041;-79
2022/05/02 09:16:47;;;;;;;6.90;3.47;;;;;;;15.03;52.83;92393.41;5069673;28;20051;-79
2022/05/02 09:19:43;;;;;;;9.25;4.80;;;;;;;15.05;52.70;92402.53;5059895;28;20056;-79
2022/05/02 09:22:21;;;;;;;8.30;4.80;;;;;;;15.13;54.87;92395.69;5082814;28;20401;-78
2022/05/02 09:25:07;;;;;;;5.45;3.53;;;;;;;15.50;53.48;92393.38;5080321;28;20035;-79
2022/05/02 09:27:55;;;;;;;7.93;5.13;;;;;;;15.75;52.41;92392.47;5086960;28;20055;-79
2022/05/02 09:30:39;;;;;;;7.38;4.75;;;;;;;15.46;53.03;92398.50;5085361;28;20024;-78
2022/05/02 09:33:30;;;;;;;9.52;5.07;;;;;;;15.80;52.11;92392.28;5088006;28;20027;-78
2022/05/02 09:36:26;;;;;;;6.90;3.92;;;;;;;16.07;51.53;92389.47;5079637;28;20032;-79
2022/05/02 09:39:03;;;;;;;6.10;3.53;;;;;;;15.98;51.79;92384.25;5080535;28;20479;-79
2022/05/02 09:41:45;;;;;;;7.80;5.07;;;;;;;15.93;51.91;92379.94;5079458;28;20056;-79
2022/05/02 09:50:27;;;;;;;7.57;4.65;;;;;;;16.07;52.15;92392.13;5080875;28;20301;-78
2022/05/02 09:53:39;;;;;;;6.57;4.35;;;;;;;15.75;52.94;92389.84;5090069;28;20123;-78
2022/05/02 09:59:02;;;;;;;7.03;4.95;;;;;;;15.86;51.91;92392.88;5075807;28;20554;-79
2022/05/02 10:01:31;;;;;;;5.65;3.50;;;;;;;16.08;53.13;92375.97;5079420;28;20060;-78
2022/05/02 10:04:21;;;;;;;6.63;4.53;;;;;;;15.74;51.79;92384.88;5097602;28;20099;-78
2022/05/02 10:06:55;;;;;;;10.20;4.75;;;;;;;15.97;51.82;92388.00;5097254;28;20519;-77
2022/05/02 10:09:32;;;;;;;7.47;5.00;;;;;;;15.97;51.41;92386.13;5065938;28;20481;-79
2022/05/02 10:12:10;;;;;;;7.53;4.43;;;;;;;16.20;51.13;92373.38;5067483;28;20036;-80
2022/05/02 10:15:07;;;;;;;7.15;4.30;;;;;;;16.10;51.15;92375.63;5080415;28;20048;-79
2022/05/02 10:17:32;;;;;;;10.30;4.90;;;;;;;16.26;50.83;92373.94;5088111;28;20024;-79
2022/05/02 10:20:08;;;;;;;9.35;4.95;;;;;;;16.37;49.51;92371.66;5089156;28;20031;-78
2022/05/02 10:23:03;;;;;;;8.93;4.93;;;;;;;16.42;50.83;92385.47;5085951;28;20032;-79
2022/05/02 10:25:59;;;;;;;8.77;5.07;;;;;;;16.27;47.90;92372.84;5053792;28;20123;-78
2022/05/02 10:29:04;;;;;;;6.78;4.40;;;;;;;16.56;50.09;92368.56;5063694;28;20417;-79
2022/05/02 10:31:34;;;;;;;6.53;3.90;;;;;;;16.79;49.33;92361.81;5063796;28;20469;-79
2022/05/02 10:34:02;;;;;;;6.30;3.95;;;;;;;16.90;48.02;92371.97;5070537;28;20044;-79
2022/05/02 10:36:35;;;;;;;7.80;4.30;;;;;;;16.57;47.51;92367.44;5081034;28;20082;-78
2022/05/02 10:39:19;;;;;;;10.13;5.80;;;;;;;16.47;48.42;92366.00;5093317;28;20362;-79
2022/05/02 10:41:48;;;;;;;8.73;4.90;;;;;;;16.77;47.52;92377.19;5082342;28;20157;-77
2022/05/02 10:44:18;;;;;;;9.60;4.82;;;;;;;16.80;48.41;92370.53;5069012;28;20024;-79
2022/05/02 10:46:47;;;;;;;8.38;5.28;;;;;;;16.61;47.75;92374.41;5060928;28;20033;-78
2022/05/02 10:49:29;;;;;;;8.40;5.70;;;;;;;16.54;47.86;92371.53;5078851;28;20039;-79
2022/05/02 10:52:07;;;;;;;7.82;4.80;;;;;;;16.73;47.33;92357.81;5099940;28;20485;-79
2022/05/02 10:54:43;;;;;;;11.02;5.55;;;;;;;16.98;47.94;92363.19;5082091;28;20078;-79
2022/05/02 10:57:24;;;;;;;7.53;4.88;;;;;;;16.91;47.42;92369.03;5093613;28;20060;-78
2022/05/02 10:59:52;;;;;;;8.77;5.30;;;;;;;17.04;47.43;92361.84;5066636;28;20039;-79
2022/05/02 11:02:55;;;;;;;6.15;4.05;;;;;;;17.02;46.52;92364.06;5080322;28;20104;-79
2022/05/02 11:05:42;;;;;;;7.88;5.07;;;;;;;16.91;48.17;92357.66;5082298;28;20057;-79
2022/05/02 11:08:11;;;;;;;7.25;4.28;;;;;;;16.82;48.18;92358.53;5063861;28;20040;-79
2022/05/02 11:10:47;;;;;;;10.02;5.03;;;;;;;17.23;48.06;92359.47;5065888;28;20040;-79
2022/05/02 11:13:37;;;;;;;9.13;5.25;;;;;;;16.93;47.51;92358.88;5064126;28;20036;-79
2022/05/02 11:16:25;;;;;;;10.32;5.65;;;;;;;16.74;48.22;92359.34;5080868;28;20025;-78
2022/05/02 11:21:51;;;;;;;6.45;4.32;;;;;;;17.04;46.83;92375.09;5050685;28;20098;-81
2022/05/02 11:24:25;;;;;;;7.10;4.05;;;;;;;16.87;47.69;92352.25;5084517;28;20016;-80
2022/05/02 11:27:00;;;;;;;9.48;4.45;;;;;;;16.67;48.97;92353.06;5099137;28;20136;-80
2022/05/02 11:29:53;;;;;;;6.40;4.70;;;;;;;16.95;48.03;92359.31;5082218;28;20032;-79
2022/05/02 11:32:25;;;;;;;6.75;3.88;;;;;;;17.06;47.15;92354.38;5082825;28;20139;-80
2022/05/02 11:35:28;;;;;;;8.35;5.03;;;;;;;16.74;46.01;92348.03;5082493;28;20261;-80
2022/05/02 11:38:01;;;;;;;7.97;4.72;;;;;;;16.76;46.25;92351.88;5048359;28;20032;-80
2022/05/02 11:40:41;;;;;;;7.95;4.68;;;;;;;16.84;46.79;92345.75;5065227;28;20032;-80
2022/05/02 11:43:08;;;;;;;6.95;4.53;;;;;;;16.98;46.83;92342.81;5098249;28;20024;-79
2022/05/02 11:45:47;;;;;;;7.95;4.32;;;;;;;17.20;44.57;92344.25;5085054;28;20076;-80
2022/05/02 11:48:32;;;;;;;6.15;4.05;;;;;;;17.30;45.10;92340.41;5103200;28;20088;-80
2022/05/02 11:51:04;;;;;;;11.98;4.30;;;;;;;17.57;44.78;92338.94;5084800;28;20047;-79
2022/05/02 11:53:35;;;;;;;9.10;4.45;;;;;;;17.41;45.09;92344.16;5101229;28;20113;-79
2022/05/02 11:56:05;;;;;;;6.25;4.57;;;;;;;17.37;44.95;92321.34;5085314;28;20036;-79
2022/05/02 11:58:42;;;;;;;7.53;4.55;;;;;;;17.38;47.05;92344.03;5102397;28;20028;-80
2022/05/02 12:01:11;;;;;;;10.55;5.78;;;;;;;17.25;46.90;92333.47;5084790;28;20074;-80
2022/05/02 12:03:43;;;;;;;9.80;5.70;;;;;;;17.01;47.67;92347.44;5067049;28;20088;-80
2022/05/02 12:06:14;;;;;;;8.63;4.95;;;;;;;17.11;47.22;92348.84;5099648;28;20344;-79
2022/05/02 12:08:44;;;;;;;6.50;4.45;;;;;;;17.15;46.70;92347.09;5084754;28;20028;-79
2022/05/02 12:11:14;;;;;;;10.30;5.53;;;;;;;17.21;45.82;92348.44;5101123;28;20059;-79
2022/05/02 12:13:46;;;;;;;8.48;5.57;;;;;;;16.85;47.78;92339.38;5102240;28;20051;-79
2022/05/02 12:16:19;;;;;;;14.25;4.43;;;;;;;17.11;45.93;92333.00;5076373;28;20470;-80
2022/05/02 12:18:47;;;;;;;10.02;4.78;;;;;;;17.27;46.77;92336.53;5065691;28;20273;-79
2022/05/02 12:21:30;;;;;;;9.57;5.07;;;;;;;17.23;45.90;92345.47;5076425;28;20066;-79
2022/05/02 12:23:58;;;;;;;10.02;4.95;;;;;;;17.31;45.79;92334.00;5098542;28;20032;-79
2022/05/02 12:26:24;;;;;;;9.77;5.03;;;;;;;17.24;46.84;92345.13;5086488;28;20040;-79
2022/05/02 12:28:56;;;;;;;7.47;5.25;;;;;;;17.44;46.41;92340.06;5082518;28;20035;-79